Terminal Aerodrome Forecast
Issued by NWS

Home | Current Version | Previous Version | Text Only | Print | Product List | Glossary On
Versions: 1 2 3 4 5 6 7 8 9 10 11 12 13 14 15 16 17 18 19 20 21 22 23 24 25 26 27 28 29 30 31 32 33 34 35 36 37
000
FTPQ31 PGUM 021539 AAE
TAFTRO
TAF AMD
PTRO 021539Z 0216/0312 25012G22KT P6SM VCSH SCT016 BKN120
      TEMPO 0216/0220 5SM SHRA BKN016 BKN060=

USA.gov is the U.S. government's official web portal to all federal, state and local government web resources and services.